createdAt,value
2023-06-30T00:01:33.657Z,11.98
2023-06-30T00:04:55.737Z,9.55
2023-06-30T00:08:17.760Z,9.57
2023-06-30T00:11:41.150Z,10.02
2023-06-30T00:15:03.550Z,10.10
2023-06-30T00:18:27.000Z,9.35
2023-06-30T00:21:49.344Z,9.88
2023-06-30T00:25:13.596Z,9.93
2023-06-30T00:28:38.080Z,7.95
2023-06-30T00:31:59.782Z,8.55
2023-06-30T00:35:24.050Z,9.82
2023-06-30T00:38:46.748Z,8.50
2023-06-30T00:42:10.529Z,10.82
2023-06-30T00:45:32.377Z,10.10
2023-06-30T00:48:54.177Z,8.68
2023-06-30T00:52:17.085Z,10.25
2023-06-30T00:55:38.542Z,8.75
2023-06-30T00:59:01.398Z,9.45
2023-06-30T01:02:30.040Z,12.82
2023-06-30T01:06:00.312Z,9.05
2023-06-30T01:09:26.042Z,10.30
2023-06-30T01:12:48.837Z,10.73
2023-06-30T01:16:11.919Z,9.18
2023-06-30T01:19:37.803Z,9.00
2023-06-30T01:23:06.998Z,9.65
2023-06-30T01:26:31.966Z,8.85
2023-06-30T01:29:56.003Z,9.63
2023-06-30T01:33:17.869Z,10.05
2023-06-30T01:36:39.599Z,10.18
2023-06-30T01:40:04.012Z,11.45
2023-06-30T01:43:28.282Z,10.65
2023-06-30T01:46:50.064Z,12.57
2023-06-30T01:50:12.751Z,19.00
2023-06-30T01:53:34.190Z,14.90
2023-06-30T01:56:55.787Z,15.10
2023-06-30T02:00:19.230Z,18.38
2023-06-30T02:03:42.724Z,17.63
2023-06-30T02:07:05.180Z,17.75
2023-06-30T02:10:27.319Z,17.10
2023-06-30T02:13:50.316Z,16.05
2023-06-30T02:17:16.059Z,18.90
2023-06-30T02:20:40.029Z,17.60
2023-06-30T02:24:01.464Z,20.08
2023-06-30T02:27:23.262Z,16.90
2023-06-30T02:30:45.387Z,16.58
2023-06-30T02:34:08.323Z,17.55
2023-06-30T02:37:30.557Z,20.65
2023-06-30T02:40:52.295Z,18.85
2023-06-30T02:44:14.408Z,17.10
2023-06-30T02:47:36.424Z,19.75
2023-06-30T02:51:00.159Z,18.73
2023-06-30T02:54:22.049Z,18.88
2023-06-30T02:57:44.073Z,20.23
2023-06-30T03:01:07.217Z,20.00
2023-06-30T03:04:31.155Z,18.25
2023-06-30T03:07:55.181Z,19.30
2023-06-30T03:11:17.014Z,18.95
2023-06-30T03:14:38.926Z,20.25
2023-06-30T03:18:00.385Z,19.20
2023-06-30T03:21:22.408Z,17.80
2023-06-30T03:24:46.289Z,18.88
2023-06-30T03:28:08.533Z,19.40
2023-06-30T03:31:30.495Z,19.55
2023-06-30T03:34:52.407Z,20.42
2023-06-30T03:38:13.982Z,19.10
2023-06-30T03:41:37.296Z,19.25
2023-06-30T03:44:59.875Z,22.35
2023-06-30T03:48:22.713Z,20.55
2023-06-30T03:51:44.456Z,20.25
2023-06-30T03:55:07.488Z,20.65
2023-06-30T03:58:32.372Z,19.40
2023-06-30T04:01:54.575Z,20.00
2023-06-30T04:05:16.120Z,21.15
2023-06-30T04:08:37.883Z,17.88
2023-06-30T04:11:59.332Z,19.42
2023-06-30T04:15:22.417Z,20.90
2023-06-30T04:18:43.973Z,19.92
2023-06-30T04:22:06.016Z,18.85
2023-06-30T04:25:27.634Z,19.38
2023-06-30T04:28:49.602Z,19.73
2023-06-30T04:32:12.999Z,19.98
2023-06-30T04:35:34.856Z,20.05
2023-06-30T04:38:57.169Z,20.45
2023-06-30T04:42:19.387Z,17.75
2023-06-30T04:45:41.412Z,18.90
2023-06-30T04:49:05.683Z,19.58
2023-06-30T04:52:27.440Z,18.85
2023-06-30T04:55:50.560Z,19.17
2023-06-30T04:59:12.350Z,21.95
2023-06-30T05:02:33.925Z,20.95
2023-06-30T05:05:57.814Z,19.92
2023-06-30T05:09:19.624Z,20.33
2023-06-30T05:12:41.205Z,18.67
2023-06-30T05:16:03.055Z,20.10
2023-06-30T05:19:24.962Z,18.60
2023-06-30T05:23:18.755Z,20.00
2023-06-30T05:26:43.768Z,17.27
2023-06-30T05:30:06.224Z,20.08
2023-06-30T05:33:27.517Z,19.90
2023-06-30T05:36:49.317Z,20.67
2023-06-30T05:40:14.299Z,21.10
2023-06-30T05:43:35.888Z,20.02
2023-06-30T05:46:57.833Z,20.45
2023-06-30T05:50:19.792Z,23.10
2023-06-30T05:53:44.777Z,22.08
2023-06-30T05:57:10.546Z,18.60
2023-06-30T06:00:34.936Z,19.15
2023-06-30T06:03:56.907Z,19.58
2023-06-30T06:07:19.499Z,17.23
2023-06-30T06:10:41.143Z,17.35
2023-06-30T06:14:04.694Z,18.80
2023-06-30T06:17:26.298Z,17.52
2023-06-30T06:20:48.277Z,18.30
2023-06-30T06:24:10.162Z,20.23
2023-06-30T06:27:35.684Z,19.00
2023-06-30T06:30:58.928Z,18.33
2023-06-30T06:34:21.036Z,20.73
2023-06-30T06:37:43.139Z,18.90
2023-06-30T06:41:04.996Z,21.27
2023-06-30T06:44:26.876Z,25.67
2023-06-30T06:48:23.216Z,19.98
2023-06-30T06:51:44.911Z,18.52
2023-06-30T06:55:07.340Z,15.93
2023-06-30T06:58:32.237Z,17.10
2023-06-30T07:01:53.683Z,21.08
2023-06-30T07:05:16.968Z,19.52
2023-06-30T07:08:40.283Z,17.38
2023-06-30T07:12:02.267Z,17.48
2023-06-30T07:15:25.179Z,17.55
2023-06-30T07:18:46.676Z,17.25
2023-06-30T07:22:09.782Z,17.10
2023-06-30T07:25:31.441Z,16.02
2023-06-30T07:28:52.933Z,17.73
2023-06-30T07:32:16.515Z,17.45
2023-06-30T07:35:37.928Z,19.67
2023-06-30T07:39:01.306Z,16.60
2023-06-30T07:42:23.253Z,18.65
2023-06-30T07:45:45.248Z,16.10
2023-06-30T07:49:07.514Z,16.40
2023-06-30T07:52:29.260Z,16.00
2023-06-30T07:55:52.121Z,15.55
2023-06-30T07:59:14.022Z,16.85
2023-06-30T08:02:36.048Z,19.23
2023-06-30T08:05:59.446Z,18.02
2023-06-30T08:09:21.669Z,16.58
2023-06-30T08:12:45.002Z,18.15
2023-06-30T08:16:06.727Z,18.90
2023-06-30T08:19:45.738Z,16.80
2023-06-30T08:23:14.310Z,18.30
2023-06-30T08:26:36.036Z,18.98
2023-06-30T08:29:59.140Z,17.20
2023-06-30T08:33:35.117Z,20.67
2023-06-30T08:37:01.838Z,17.00
2023-06-30T08:40:28.014Z,16.70
2023-06-30T08:43:50.685Z,18.88
2023-06-30T08:47:16.781Z,16.50
2023-06-30T08:50:39.766Z,18.63
2023-06-30T08:54:01.659Z,20.67
2023-06-30T08:57:26.218Z,17.65
2023-06-30T09:00:47.704Z,17.85
2023-06-30T09:04:12.169Z,16.27
2023-06-30T09:07:41.899Z,16.95
2023-06-30T09:11:08.417Z,18.17
2023-06-30T09:14:34.674Z,17.42
2023-06-30T09:17:58.511Z,17.08
2023-06-30T09:21:24.264Z,18.83
2023-06-30T09:24:49.843Z,18.83
2023-06-30T09:28:14.838Z,18.27
2023-06-30T09:31:36.823Z,18.35
2023-06-30T09:34:58.440Z,20.80
2023-06-30T09:38:22.366Z,20.83
2023-06-30T09:41:45.332Z,18.33
2023-06-30T09:45:08.415Z,17.80
2023-06-30T09:48:32.339Z,20.42
2023-06-30T09:51:56.837Z,21.00
2023-06-30T09:55:20.271Z,21.77
2023-06-30T09:58:44.158Z,23.67
2023-06-30T10:02:05.913Z,23.33
2023-06-30T10:05:27.740Z,20.80
2023-06-30T10:08:51.505Z,23.85
2023-06-30T10:12:16.989Z,26.00
2023-06-30T10:15:39.476Z,25.33
2023-06-30T10:19:04.314Z,24.05
2023-06-30T10:22:26.336Z,22.52
2023-06-30T10:25:49.499Z,24.48
2023-06-30T10:29:13.056Z,26.10
2023-06-30T10:32:35.142Z,26.88
2023-06-30T10:35:58.933Z,29.90
2023-06-30T10:39:26.419Z,30.95
2023-06-30T10:42:49.796Z,32.03
2023-06-30T10:46:13.357Z,30.13
2023-06-30T10:49:36.284Z,29.02
2023-06-30T10:52:57.935Z,29.55
2023-06-30T10:56:24.539Z,32.17
2023-06-30T10:59:48.388Z,31.50
2023-06-30T11:03:11.172Z,26.80
2023-06-30T11:06:33.064Z,26.65
2023-06-30T11:10:04.454Z,29.50
2023-06-30T11:13:38.687Z,29.23
2023-06-30T11:17:06.728Z,29.65
2023-06-30T11:20:31.239Z,29.27
2023-06-30T11:23:52.861Z,30.73
2023-06-30T11:27:15.346Z,31.55
2023-06-30T11:30:39.900Z,32.50
2023-06-30T11:34:02.373Z,28.67
2023-06-30T11:37:27.784Z,29.25
2023-06-30T11:40:51.250Z,28.42
2023-06-30T11:44:14.482Z,31.13
2023-06-30T11:47:37.109Z,31.40
2023-06-30T11:50:59.754Z,26.02
2023-06-30T11:54:31.314Z,23.48
2023-06-30T11:57:52.826Z,21.88
2023-06-30T12:01:14.548Z,19.73
2023-06-30T12:04:37.689Z,22.73
2023-06-30T12:07:59.907Z,17.38
2023-06-30T12:11:24.622Z,18.83
2023-06-30T12:14:47.315Z,22.30
2023-06-30T12:18:09.016Z,18.20
2023-06-30T12:21:30.825Z,18.50
2023-06-30T12:24:56.431Z,20.60
2023-06-30T12:28:19.855Z,17.05
2023-06-30T12:31:42.696Z,16.50
2023-06-30T12:35:07.747Z,15.80
2023-06-30T12:38:29.484Z,16.00
2023-06-30T12:41:51.657Z,15.98
2023-06-30T12:45:14.993Z,15.02
2023-06-30T12:48:36.954Z,13.70
2023-06-30T12:52:00.472Z,16.17
2023-06-30T12:55:24.909Z,14.93
2023-06-30T12:58:47.216Z,11.77
2023-06-30T13:02:11.167Z,11.63
2023-06-30T13:05:33.365Z,12.23
2023-06-30T13:08:55.434Z,11.77
2023-06-30T13:12:25.637Z,12.10
2023-06-30T13:15:48.604Z,9.88
2023-06-30T13:19:14.129Z,10.57
2023-06-30T13:22:38.033Z,11.48
2023-06-30T13:26:04.371Z,11.35
2023-06-30T13:29:26.748Z,10.63
2023-06-30T13:32:48.871Z,10.63
2023-06-30T13:36:13.972Z,10.60
2023-06-30T13:39:37.860Z,11.68
2023-06-30T13:43:00.014Z,9.82
2023-06-30T13:46:24.521Z,12.93
2023-06-30T13:49:46.365Z,11.73
2023-06-30T13:53:09.534Z,6.85
2023-06-30T13:56:31.710Z,4.25
2023-06-30T13:59:53.804Z,6.20
2023-06-30T14:03:17.141Z,6.05
2023-06-30T14:06:39.468Z,7.05
2023-06-30T14:10:02.991Z,4.82
2023-06-30T14:13:25.388Z,7.03
2023-06-30T14:16:50.665Z,7.15
2023-06-30T14:20:14.805Z,5.05
2023-06-30T14:23:36.690Z,4.28
2023-06-30T14:26:59.655Z,4.05
2023-06-30T14:30:21.716Z,4.88
2023-06-30T14:33:43.456Z,3.58
2023-06-30T14:37:05.653Z,3.30
2023-06-30T14:40:31.093Z,5.35
2023-06-30T14:43:54.607Z,4.80
2023-06-30T14:47:16.827Z,3.03
2023-06-30T14:50:38.530Z,5.07
2023-06-30T14:54:00.563Z,3.78
2023-06-30T14:57:22.520Z,5.45
2023-06-30T15:00:45.565Z,5.15
2023-06-30T15:04:07.971Z,4.03
2023-06-30T15:07:29.617Z,3.53
2023-06-30T15:10:51.626Z,4.28
2023-06-30T15:14:13.126Z,4.20
2023-06-30T15:17:35.780Z,4.53
2023-06-30T15:20:57.725Z,5.97
2023-06-30T15:24:19.858Z,3.88
2023-06-30T15:27:41.482Z,4.53
2023-06-30T15:31:03.360Z,3.13
2023-06-30T15:34:27.069Z,3.25
2023-06-30T15:37:49.033Z,4.30
2023-06-30T15:41:22.286Z,5.47
2023-06-30T15:44:44.745Z,4.10
2023-06-30T15:48:07.114Z,3.22
2023-06-30T15:51:30.387Z,3.03
2023-06-30T15:55:08.937Z,4.72
2023-06-30T15:58:30.655Z,4.03
2023-06-30T16:01:52.541Z,3.53
2023-06-30T16:05:14.288Z,4.20
2023-06-30T16:08:37.542Z,3.30
2023-06-30T16:11:59.911Z,2.67
2023-06-30T16:15:21.850Z,3.25
2023-06-30T16:18:43.774Z,2.60
2023-06-30T16:22:05.870Z,4.50
2023-06-30T16:25:29.008Z,3.42
2023-06-30T16:28:50.799Z,3.30
2023-06-30T16:32:12.695Z,3.13
2023-06-30T16:35:35.643Z,3.78
2023-06-30T16:38:57.206Z,4.43
2023-06-30T16:42:20.635Z,2.75
2023-06-30T16:45:42.746Z,4.85
2023-06-30T16:49:04.664Z,2.40
2023-06-30T16:52:26.610Z,2.45
2023-06-30T16:55:48.739Z,3.13
2023-06-30T16:59:12.079Z,2.22
2023-06-30T17:02:34.392Z,2.38
2023-06-30T17:05:56.031Z,4.78
2023-06-30T17:09:20.433Z,3.78
2023-06-30T17:12:43.468Z,5.00
2023-06-30T17:16:06.758Z,3.83
2023-06-30T17:19:28.708Z,3.67
2023-06-30T17:22:50.121Z,3.03
2023-06-30T17:26:12.144Z,3.60
2023-06-30T17:29:33.922Z,2.38
2023-06-30T17:32:56.881Z,3.53
2023-06-30T17:36:19.599Z,3.53
2023-06-30T17:39:41.181Z,2.13
2023-06-30T17:43:02.692Z,4.70
2023-06-30T17:46:24.395Z,2.95
2023-06-30T17:49:48.331Z,2.35
2023-06-30T17:53:11.105Z,3.28
2023-06-30T17:56:32.922Z,3.25
2023-06-30T17:59:54.573Z,3.58
2023-06-30T18:03:17.087Z,3.30
2023-06-30T18:07:02.504Z,4.13
2023-06-30T18:10:24.374Z,3.45
2023-06-30T18:13:47.533Z,2.85
2023-06-30T18:17:08.946Z,2.28
2023-06-30T18:20:30.858Z,1.60
2023-06-30T18:23:53.552Z,5.53
2023-06-30T18:27:15.274Z,3.05
2023-06-30T18:30:37.083Z,3.42
2023-06-30T18:33:58.441Z,3.97
2023-06-30T18:37:20.385Z,1.98
2023-06-30T18:40:43.427Z,1.98
2023-06-30T18:44:05.617Z,4.43
2023-06-30T18:47:27.230Z,2.70
2023-06-30T18:50:48.958Z,4.60
2023-06-30T18:54:10.684Z,3.75
2023-06-30T18:57:34.591Z,4.13
2023-06-30T19:00:56.342Z,3.78
2023-06-30T19:04:18.174Z,2.67
2023-06-30T19:07:39.913Z,2.80
2023-06-30T19:11:01.672Z,2.58
2023-06-30T19:14:25.773Z,3.58
2023-06-30T19:17:47.397Z,3.72
2023-06-30T19:21:10.207Z,2.55
2023-06-30T19:24:33.001Z,2.95
2023-06-30T19:27:54.625Z,3.53
2023-06-30T19:31:18.129Z,3.30
2023-06-30T19:34:39.678Z,3.03
2023-06-30T19:38:01.093Z,4.32
2023-06-30T19:41:24.644Z,4.35
2023-06-30T19:44:47.425Z,3.13
2023-06-30T19:48:10.579Z,3.88
2023-06-30T19:51:31.959Z,4.00
2023-06-30T19:54:53.663Z,4.70
2023-06-30T19:58:15.556Z,3.95
2023-06-30T20:01:37.597Z,4.22
2023-06-30T20:05:02.579Z,5.22
2023-06-30T20:08:24.362Z,5.45
2023-06-30T20:11:46.046Z,3.53
2023-06-30T20:15:09.688Z,3.33
2023-06-30T20:18:31.487Z,7.85
2023-06-30T20:21:54.572Z,5.82
2023-06-30T20:25:16.166Z,4.47
2023-06-30T20:28:39.656Z,5.43
2023-06-30T20:32:01.650Z,11.55
2023-06-30T20:35:23.405Z,3.97
2023-06-30T20:38:46.766Z,5.30
2023-06-30T20:42:09.096Z,7.10
2023-06-30T20:45:31.779Z,3.53
2023-06-30T20:48:54.035Z,8.52
2023-06-30T20:52:15.551Z,4.32
2023-06-30T20:55:38.667Z,5.72
2023-06-30T20:59:00.429Z,7.82
2023-06-30T21:02:22.012Z,7.65
2023-06-30T21:05:43.311Z,34.22
2023-06-30T21:09:06.288Z,20.05
2023-06-30T21:12:29.042Z,15.20
2023-06-30T21:15:50.497Z,10.73
2023-06-30T21:19:12.976Z,6.85
2023-06-30T21:22:34.525Z,5.18
2023-06-30T21:25:56.543Z,12.85
2023-06-30T21:29:19.769Z,9.40
2023-06-30T21:32:41.839Z,7.50
2023-06-30T21:36:03.605Z,7.72
2023-06-30T21:39:25.044Z,4.63
2023-06-30T21:42:46.973Z,8.75
2023-06-30T21:46:15.227Z,12.48
2023-06-30T21:49:37.799Z,9.93
2023-06-30T21:52:59.297Z,6.07
2023-06-30T21:56:21.632Z,10.52
2023-06-30T21:59:43.079Z,7.07
2023-06-30T22:03:07.274Z,9.13
2023-06-30T22:06:29.346Z,6.95
2023-06-30T22:09:51.285Z,8.23
2023-06-30T22:13:13.152Z,7.03
2023-06-30T22:16:34.481Z,11.15
2023-06-30T22:19:57.713Z,14.68
2023-06-30T22:23:19.218Z,13.98
2023-06-30T22:26:41.099Z,11.30
2023-06-30T22:30:02.986Z,8.70
2023-06-30T22:33:24.584Z,9.65
2023-06-30T22:36:47.613Z,8.50
2023-06-30T22:40:10.758Z,9.52
2023-06-30T22:43:32.274Z,8.48
2023-06-30T22:46:53.544Z,9.27
2023-06-30T22:50:15.760Z,7.75
2023-06-30T22:53:38.518Z,7.47
2023-06-30T22:57:00.275Z,7.45
2023-06-30T23:00:22.768Z,9.90
2023-06-30T23:03:44.404Z,11.90
2023-06-30T23:07:06.325Z,13.77
2023-06-30T23:10:29.105Z,10.68
2023-06-30T23:13:50.911Z,11.07
2023-06-30T23:17:16.070Z,8.65
2023-06-30T23:20:37.438Z,10.10
2023-06-30T23:23:59.322Z,9.57
2023-06-30T23:27:24.506Z,7.30
2023-06-30T23:30:46.159Z,6.72
2023-06-30T23:34:08.027Z,6.65
2023-06-30T23:37:29.898Z,6.47
2023-06-30T23:40:51.203Z,6.07
2023-06-30T23:44:14.777Z,5.75
2023-06-30T23:47:36.359Z,4.63
2023-06-30T23:50:58.225Z,5.88
2023-06-30T23:54:19.898Z,5.00
2023-06-30T23:57:41.803Z,7.20
